createdAt,value
2022-11-13T00:02:37.735Z,52.34
2022-11-13T00:05:23.454Z,52.39
2022-11-13T00:08:09.159Z,52.07
2022-11-13T00:11:01.890Z,52.46
2022-11-13T00:13:49.000Z,52.76
2022-11-13T00:16:34.163Z,51.53
2022-11-13T00:19:19.784Z,51.54
2022-11-13T00:22:05.256Z,51.66
2022-11-13T00:24:50.694Z,51.77
2022-11-13T00:27:36.237Z,51.84
2022-11-13T00:30:21.993Z,52.02
2022-11-13T00:33:07.490Z,51.97
2022-11-13T00:35:53.164Z,51.28
2022-11-13T00:38:38.857Z,51.42
2022-11-13T00:41:24.947Z,51.80
2022-11-13T00:44:10.955Z,51.79
2022-11-13T00:46:56.419Z,51.76
2022-11-13T00:49:42.105Z,51.52
2022-11-13T00:52:27.695Z,51.68
2022-11-13T00:55:13.444Z,51.69
2022-11-13T00:57:58.752Z,51.85
2022-11-13T01:00:47.413Z,52.29
2022-11-13T01:03:33.379Z,52.22
2022-11-13T01:06:24.669Z,52.15
2022-11-13T01:09:10.203Z,51.51
2022-11-13T01:11:56.146Z,51.57
2022-11-13T01:14:41.556Z,51.67
2022-11-13T01:17:27.654Z,51.89
2022-11-13T01:20:13.447Z,51.53
2022-11-13T01:22:59.343Z,51.75
2022-11-13T01:25:45.236Z,51.18
2022-11-13T01:28:31.185Z,51.13
2022-11-13T01:31:19.721Z,51.29
2022-11-13T01:34:05.382Z,51.11
2022-11-13T01:36:50.753Z,51.19
2022-11-13T01:39:36.468Z,51.13
2022-11-13T01:42:21.821Z,51.20
2022-11-13T01:46:02.111Z,51.79
2022-11-13T01:49:11.239Z,51.80
2022-11-13T01:52:10.946Z,51.43
2022-11-13T01:55:19.094Z,51.88
2022-11-13T01:58:07.785Z,51.83
2022-11-13T02:00:53.678Z,51.85
2022-11-13T02:03:39.494Z,51.89
2022-11-13T02:06:28.536Z,51.99
2022-11-13T02:09:16.718Z,52.29
2022-11-13T02:12:02.738Z,52.28
2022-11-13T02:15:09.328Z,52.40
2022-11-13T02:18:00.716Z,52.06
2022-11-13T02:21:14.724Z,52.27
2022-11-13T02:24:37.838Z,52.75
2022-11-13T02:27:34.338Z,52.60
2022-11-13T02:30:32.196Z,52.63
2022-11-13T02:33:24.112Z,52.92
2022-11-13T02:36:12.311Z,52.89
2022-11-13T02:39:03.205Z,52.64
2022-11-13T02:41:48.678Z,51.73
2022-11-13T02:44:34.195Z,51.79
2022-11-13T02:47:20.056Z,51.38
2022-11-13T02:50:06.540Z,51.67
2022-11-13T02:52:52.459Z,51.92
2022-11-13T02:55:38.012Z,51.57
2022-11-13T02:58:23.688Z,51.95
2022-11-13T03:01:09.406Z,51.36
2022-11-13T03:03:57.891Z,51.92
2022-11-13T03:06:44.073Z,51.74
2022-11-13T03:09:29.541Z,52.12
2022-11-13T03:12:15.159Z,51.91
2022-11-13T03:15:01.455Z,51.98
2022-11-13T03:17:47.318Z,52.68
2022-11-13T03:20:33.081Z,53.46
2022-11-13T03:23:18.577Z,54.11
2022-11-13T03:26:06.965Z,54.30
2022-11-13T03:28:52.504Z,55.91
2022-11-13T03:31:38.255Z,56.63
2022-11-13T03:34:23.903Z,56.24
2022-11-13T03:37:09.643Z,56.21
2022-11-13T03:39:55.089Z,56.02
2022-11-13T03:42:40.821Z,56.21
2022-11-13T03:45:26.122Z,56.51
2022-11-13T03:48:11.736Z,57.12
2022-11-13T03:50:57.361Z,56.64
2022-11-13T03:53:42.643Z,57.39
2022-11-13T03:56:28.409Z,57.46
2022-11-13T03:59:13.981Z,57.93
2022-11-13T04:01:59.661Z,58.32
2022-11-13T04:04:45.275Z,58.30
2022-11-13T04:07:30.836Z,58.87
2022-11-13T04:10:16.591Z,58.00
2022-11-13T04:13:02.424Z,57.65
2022-11-13T04:15:48.024Z,57.45
2022-11-13T04:18:33.447Z,57.57
2022-11-13T04:21:19.013Z,57.84
2022-11-13T04:24:04.896Z,57.73
2022-11-13T04:26:50.793Z,57.52
2022-11-13T04:29:36.664Z,57.69
2022-11-13T04:32:22.479Z,58.65
2022-11-13T04:35:08.142Z,58.70
2022-11-13T04:37:54.335Z,58.18
2022-11-13T04:40:40.928Z,58.20
2022-11-13T04:43:26.681Z,57.63
2022-11-13T04:46:12.433Z,57.80
2022-11-13T04:48:58.305Z,57.22
2022-11-13T04:51:44.056Z,56.85
2022-11-13T04:54:29.738Z,56.51
2022-11-13T04:57:15.584Z,56.50
2022-11-13T05:00:01.248Z,56.48
2022-11-13T05:02:46.837Z,56.67
2022-11-13T05:05:32.352Z,56.25
2022-11-13T05:08:17.790Z,55.99
2022-11-13T05:11:04.215Z,55.72
2022-11-13T05:13:49.787Z,55.87
2022-11-13T05:16:36.738Z,55.75
2022-11-13T05:19:23.663Z,56.03
2022-11-13T05:22:09.891Z,55.49
2022-11-13T05:24:55.654Z,55.80
2022-11-13T05:27:41.466Z,55.66
2022-11-13T05:30:27.379Z,55.70
2022-11-13T05:33:12.808Z,55.72
2022-11-13T05:36:06.234Z,56.14
2022-11-13T05:38:52.675Z,56.27
2022-11-13T05:41:38.397Z,55.98
2022-11-13T05:44:24.039Z,56.08
2022-11-13T05:47:09.542Z,56.52
2022-11-13T05:49:54.944Z,56.00
2022-11-13T05:52:40.173Z,55.48
2022-11-13T05:55:25.969Z,55.49
2022-11-13T05:58:12.994Z,55.78
2022-11-13T06:01:19.286Z,55.22
2022-11-13T06:04:06.580Z,55.38
2022-11-13T06:06:52.652Z,55.15
2022-11-13T06:09:38.363Z,55.42
2022-11-13T06:12:24.129Z,55.33
2022-11-13T06:15:10.431Z,55.65
2022-11-13T06:17:56.078Z,55.38
2022-11-13T06:20:41.703Z,55.54
2022-11-13T06:23:27.132Z,55.45
2022-11-13T06:26:14.614Z,55.70
2022-11-13T06:29:01.573Z,55.70
2022-11-13T06:31:47.061Z,55.07
2022-11-13T06:34:32.609Z,55.35
2022-11-13T06:37:18.054Z,55.78
2022-11-13T06:40:03.932Z,55.51
2022-11-13T06:42:49.626Z,55.75
2022-11-13T06:45:35.772Z,55.88
2022-11-13T06:48:21.368Z,55.58
2022-11-13T06:51:11.478Z,55.77
2022-11-13T06:53:58.285Z,55.73
2022-11-13T06:56:45.688Z,55.76
2022-11-13T06:59:31.376Z,56.09
2022-11-13T07:02:16.771Z,55.92
2022-11-13T07:05:02.697Z,55.70
2022-11-13T07:07:48.541Z,55.95
2022-11-13T07:10:34.256Z,55.56
2022-11-13T07:13:19.633Z,55.76
2022-11-13T07:16:16.356Z,55.43
2022-11-13T07:19:02.536Z,55.82
2022-11-13T07:21:48.202Z,55.35
2022-11-13T07:24:33.667Z,55.29
2022-11-13T07:27:18.993Z,54.86
2022-11-13T07:30:05.381Z,55.27
2022-11-13T07:32:51.204Z,55.41
2022-11-13T07:35:36.628Z,55.23
2022-11-13T07:38:22.852Z,54.86
2022-11-13T07:41:08.495Z,54.53
2022-11-13T07:43:53.864Z,54.31
2022-11-13T07:46:39.489Z,53.42
2022-11-13T07:49:24.922Z,53.12
2022-11-13T07:52:10.463Z,53.19
2022-11-13T07:54:55.982Z,52.68
2022-11-13T07:57:41.140Z,52.77
2022-11-13T08:00:28.865Z,52.34
2022-11-13T08:03:15.488Z,52.47
2022-11-13T08:06:06.397Z,52.47
2022-11-13T08:08:51.940Z,52.40
2022-11-13T08:11:38.124Z,52.42
2022-11-13T08:14:25.953Z,52.36
2022-11-13T08:17:11.454Z,52.77
2022-11-13T08:19:56.910Z,51.39
2022-11-13T08:22:42.247Z,51.81
2022-11-13T08:25:29.707Z,51.54
2022-11-13T08:28:15.956Z,50.45
2022-11-13T08:31:02.789Z,51.90
2022-11-13T08:33:48.758Z,50.20
2022-11-13T08:36:34.384Z,49.88
2022-11-13T08:39:19.898Z,49.64
2022-11-13T08:42:05.889Z,49.06
2022-11-13T08:44:51.595Z,49.20
2022-11-13T08:47:37.995Z,48.03
2022-11-13T08:50:23.914Z,48.86
2022-11-13T08:53:09.392Z,48.76
2022-11-13T08:55:55.030Z,48.78
2022-11-13T08:58:40.634Z,47.82
2022-11-13T09:01:28.382Z,48.72
2022-11-13T09:04:13.806Z,49.63
2022-11-13T09:07:01.103Z,49.07
2022-11-13T09:09:46.798Z,48.76
2022-11-13T09:12:32.575Z,49.16
2022-11-13T09:15:21.744Z,48.95
2022-11-13T09:18:10.866Z,49.80
2022-11-13T09:21:00.926Z,49.34
2022-11-13T09:23:46.241Z,49.75
2022-11-13T09:26:31.763Z,49.54
2022-11-13T09:29:18.479Z,50.29
2022-11-13T09:32:04.239Z,49.53
2022-11-13T09:34:49.895Z,49.00
2022-11-13T09:37:35.653Z,49.22
2022-11-13T09:40:30.926Z,49.48
2022-11-13T09:43:43.307Z,49.18
2022-11-13T09:46:47.423Z,49.56
2022-11-13T09:49:38.084Z,50.30
2022-11-13T09:52:33.070Z,50.37
2022-11-13T09:55:22.845Z,50.41
2022-11-13T09:58:36.944Z,50.54
2022-11-13T10:01:41.691Z,50.10
2022-11-13T10:04:47.124Z,49.30
2022-11-13T10:07:48.790Z,49.01
2022-11-13T10:10:55.589Z,47.87
2022-11-13T10:14:11.129Z,48.26
2022-11-13T10:17:04.046Z,47.23
2022-11-13T10:20:12.647Z,47.31
2022-11-13T10:23:24.803Z,48.61
2022-11-13T10:26:35.974Z,48.01
2022-11-13T10:29:22.059Z,45.76
2022-11-13T10:32:23.347Z,46.02
2022-11-13T10:35:42.629Z,43.40
2022-11-13T10:38:43.566Z,44.43
2022-11-13T10:41:29.938Z,44.33
2022-11-13T10:44:20.420Z,45.09
2022-11-13T10:47:17.843Z,45.14
2022-11-13T10:50:12.896Z,45.85
2022-11-13T10:52:59.876Z,45.71
2022-11-13T10:55:47.528Z,46.05
2022-11-13T10:58:40.329Z,45.17
2022-11-13T11:01:27.565Z,45.03
2022-11-13T11:04:20.271Z,44.50
2022-11-13T11:07:20.367Z,44.85
2022-11-13T11:10:30.974Z,44.42
2022-11-13T11:13:23.087Z,43.71
2022-11-13T11:16:11.793Z,43.73
2022-11-13T11:19:09.506Z,44.44
2022-11-13T11:22:07.176Z,45.73
2022-11-13T11:25:02.039Z,46.43
2022-11-13T11:27:55.374Z,48.10
2022-11-13T11:30:49.975Z,49.14
2022-11-13T11:34:19.065Z,49.48
2022-11-13T11:37:23.765Z,50.80
2022-11-13T11:40:26.224Z,50.30
2022-11-13T11:43:12.185Z,49.86
2022-11-13T11:45:58.955Z,50.36
2022-11-13T11:48:44.551Z,50.34
2022-11-13T11:51:43.082Z,50.20
2022-11-13T11:54:28.727Z,49.81
2022-11-13T11:57:48.655Z,50.32
2022-11-13T12:00:43.606Z,50.16
2022-11-13T12:03:35.335Z,50.15
2022-11-13T12:06:39.590Z,50.20
2022-11-13T12:09:31.713Z,50.03
2022-11-13T12:12:45.463Z,50.31
2022-11-13T12:15:46.428Z,50.67
2022-11-13T12:19:05.774Z,51.21
2022-11-13T12:22:08.556Z,51.73
2022-11-13T12:25:09.707Z,52.31
2022-11-13T12:28:41.182Z,52.30
2022-11-13T12:31:57.857Z,53.77
2022-11-13T12:34:47.573Z,53.76
2022-11-13T12:37:38.749Z,54.70
2022-11-13T12:40:48.570Z,55.64
2022-11-13T12:44:17.369Z,55.21
2022-11-13T12:47:03.174Z,55.87
2022-11-13T12:49:59.249Z,55.63
2022-11-13T12:52:45.211Z,56.15
2022-11-13T12:55:36.170Z,56.04
2022-11-13T12:58:30.631Z,56.61
2022-11-13T13:01:21.657Z,56.32
2022-11-13T13:04:19.543Z,56.68
2022-11-13T13:07:29.282Z,56.52
2022-11-13T13:10:29.589Z,57.17
2022-11-13T13:13:19.501Z,56.79
2022-11-13T13:16:09.120Z,56.87
2022-11-13T13:19:08.344Z,57.32
2022-11-13T13:21:54.911Z,57.39
2022-11-13T13:24:40.680Z,57.11
2022-11-13T13:27:33.228Z,56.84
2022-11-13T13:30:21.791Z,56.95
2022-11-13T13:33:19.172Z,57.06
2022-11-13T13:36:30.832Z,57.12
2022-11-13T13:39:18.955Z,57.92
2022-11-13T13:42:16.952Z,57.71
2022-11-13T13:45:24.760Z,59.01
2022-11-13T13:48:13.637Z,58.09
2022-11-13T13:51:01.199Z,58.43
2022-11-13T13:53:48.394Z,58.05
2022-11-13T13:56:39.961Z,58.15
2022-11-13T13:59:37.221Z,58.62
2022-11-13T14:02:25.585Z,58.82
2022-11-13T14:05:35.473Z,58.70
2022-11-13T14:08:26.205Z,58.56
2022-11-13T14:11:31.104Z,58.67
2022-11-13T14:14:20.531Z,58.87
2022-11-13T14:17:07.058Z,58.69
2022-11-13T14:19:54.311Z,58.70
2022-11-13T14:22:42.820Z,58.94
2022-11-13T14:25:29.543Z,58.91
2022-11-13T14:28:27.649Z,58.70
2022-11-13T14:31:14.984Z,58.91
2022-11-13T14:34:08.436Z,58.36
2022-11-13T14:36:54.030Z,58.79
2022-11-13T14:39:39.660Z,58.55
2022-11-13T14:42:39.242Z,58.19
2022-11-13T14:45:30.038Z,58.15
2022-11-13T14:48:22.940Z,58.33
2022-11-13T14:51:32.060Z,58.28
2022-11-13T14:54:53.204Z,58.26
2022-11-13T14:57:47.730Z,58.07
2022-11-13T15:00:36.429Z,58.56
2022-11-13T15:03:22.293Z,58.71
2022-11-13T15:06:27.107Z,58.45
2022-11-13T15:09:16.551Z,58.24
2022-11-13T15:12:02.327Z,58.34
2022-11-13T15:14:47.821Z,58.17
2022-11-13T15:17:33.482Z,57.89
2022-11-13T15:20:24.857Z,57.99
2022-11-13T15:23:15.289Z,58.07
2022-11-13T15:26:00.468Z,57.89
2022-11-13T15:28:46.195Z,58.26
2022-11-13T15:31:41.341Z,57.90
2022-11-13T15:34:27.133Z,58.28
2022-11-13T15:37:14.557Z,58.35
2022-11-13T15:39:59.745Z,58.35
2022-11-13T15:42:45.560Z,57.88
2022-11-13T15:45:31.243Z,58.17
2022-11-13T15:48:17.710Z,58.34
2022-11-13T15:51:03.136Z,58.20
2022-11-13T15:54:01.792Z,58.16
2022-11-13T15:56:47.887Z,57.93
2022-11-13T15:59:33.502Z,58.10
2022-11-13T16:02:19.349Z,58.29
2022-11-13T16:05:05.464Z,57.79
2022-11-13T16:07:53.007Z,57.48
2022-11-13T16:10:38.932Z,57.53
2022-11-13T16:13:24.674Z,57.67
2022-11-13T16:16:18.682Z,57.50
2022-11-13T16:19:13.336Z,57.24
2022-11-13T16:21:58.983Z,57.37
2022-11-13T16:24:44.868Z,57.42
2022-11-13T16:27:34.089Z,57.35
2022-11-13T16:30:23.460Z,57.29
2022-11-13T16:33:12.768Z,57.31
2022-11-13T16:35:58.269Z,57.08
2022-11-13T16:38:43.408Z,57.17
2022-11-13T16:41:31.690Z,57.03
2022-11-13T16:44:17.599Z,57.31
2022-11-13T16:47:04.459Z,56.99
2022-11-13T16:49:50.670Z,56.96
2022-11-13T16:52:37.368Z,56.89
2022-11-13T16:55:23.632Z,57.28
2022-11-13T16:58:13.695Z,57.11
2022-11-13T17:01:00.340Z,57.11
2022-11-13T17:03:46.067Z,57.01
2022-11-13T17:06:35.662Z,57.07
2022-11-13T17:09:21.289Z,56.62
2022-11-13T17:12:11.042Z,57.02
2022-11-13T17:14:56.827Z,56.68
2022-11-13T17:17:42.283Z,57.01
2022-11-13T17:20:28.279Z,56.74
2022-11-13T17:23:16.289Z,57.34
2022-11-13T17:26:02.977Z,57.08
2022-11-13T17:28:48.744Z,56.93
2022-11-13T17:31:34.802Z,57.59
2022-11-13T17:34:20.086Z,57.82
2022-11-13T17:37:06.116Z,57.55
2022-11-13T17:39:51.790Z,57.00
2022-11-13T17:42:37.530Z,57.30
2022-11-13T17:45:23.066Z,56.95
2022-11-13T17:48:08.851Z,57.51
2022-11-13T17:50:59.188Z,57.55
2022-11-13T17:53:44.849Z,57.07
2022-11-13T17:56:30.744Z,57.27
2022-11-13T17:59:16.455Z,56.95
2022-11-13T18:02:02.917Z,56.66
2022-11-13T18:04:49.166Z,56.46
2022-11-13T18:07:34.806Z,56.18
2022-11-13T18:10:20.742Z,56.61
2022-11-13T18:13:07.047Z,55.85
2022-11-13T18:15:53.086Z,56.17
2022-11-13T18:18:39.737Z,56.07
2022-11-13T18:21:30.858Z,56.19
2022-11-13T18:24:19.227Z,56.01
2022-11-13T18:27:08.622Z,55.89
2022-11-13T18:29:54.204Z,55.68
2022-11-13T18:32:40.048Z,55.45
2022-11-13T18:35:25.426Z,55.69
2022-11-13T18:38:11.352Z,55.59
2022-11-13T18:41:04.073Z,56.14
2022-11-13T18:43:51.416Z,55.81
2022-11-13T18:46:37.260Z,55.76
2022-11-13T18:49:23.375Z,55.41
2022-11-13T18:52:09.271Z,55.89
2022-11-13T18:54:55.116Z,55.93
2022-11-13T18:57:40.907Z,55.94
2022-11-13T19:00:26.647Z,56.14
2022-11-13T19:03:12.235Z,56.27
2022-11-13T19:05:58.085Z,55.75
2022-11-13T19:08:44.409Z,56.00
2022-11-13T19:11:31.072Z,56.58
2022-11-13T19:14:18.454Z,56.56
2022-11-13T19:17:04.349Z,55.96
2022-11-13T19:19:50.470Z,56.15
2022-11-13T19:22:35.991Z,56.04
2022-11-13T19:25:22.913Z,56.24
2022-11-13T19:28:08.878Z,56.05
2022-11-13T19:30:57.236Z,55.84
2022-11-13T19:33:44.026Z,55.85
2022-11-13T19:36:31.531Z,56.00
2022-11-13T19:39:17.707Z,56.11
2022-11-13T19:42:03.488Z,56.26
2022-11-13T19:44:49.332Z,55.94
2022-11-13T19:47:36.279Z,56.22
2022-11-13T19:50:21.996Z,56.13
2022-11-13T19:53:07.906Z,56.58
2022-11-13T19:55:55.443Z,56.58
2022-11-13T19:58:44.260Z,55.88
2022-11-13T20:01:32.154Z,56.49
2022-11-13T20:04:18.210Z,56.39
2022-11-13T20:07:04.260Z,56.87
2022-11-13T20:09:50.049Z,57.61
2022-11-13T20:12:35.812Z,57.99
2022-11-13T20:15:21.489Z,58.19
2022-11-13T20:18:07.338Z,59.11
2022-11-13T20:20:54.962Z,60.25
2022-11-13T20:23:40.852Z,60.91
2022-11-13T20:26:27.681Z,60.46
2022-11-13T20:29:13.448Z,60.86
2022-11-13T20:32:02.150Z,61.15
2022-11-13T20:34:48.028Z,61.09
2022-11-13T20:37:34.402Z,60.82
2022-11-13T20:40:20.752Z,60.57
2022-11-13T20:43:06.472Z,61.28
2022-11-13T20:46:01.600Z,61.57
2022-11-13T20:48:48.234Z,62.11
2022-11-13T20:51:34.108Z,62.50
2022-11-13T20:54:20.053Z,62.05
2022-11-13T20:57:05.912Z,61.89
2022-11-13T20:59:51.561Z,62.33
2022-11-13T21:02:36.999Z,62.00
2022-11-13T21:05:22.465Z,62.72
2022-11-13T21:08:11.376Z,62.87
2022-11-13T21:11:02.717Z,61.98
2022-11-13T21:13:49.806Z,62.00
2022-11-13T21:16:35.089Z,62.31
2022-11-13T21:19:22.519Z,61.67
2022-11-13T21:22:08.225Z,61.52
2022-11-13T21:24:53.780Z,62.88
2022-11-13T21:27:39.854Z,62.02
2022-11-13T21:30:25.527Z,62.08
2022-11-13T21:33:11.179Z,62.30
2022-11-13T21:36:03.903Z,62.72
2022-11-13T21:38:50.263Z,62.80
2022-11-13T21:41:35.652Z,61.93
2022-11-13T21:44:21.048Z,61.60
2022-11-13T21:47:06.307Z,62.09
2022-11-13T21:49:52.098Z,61.97
2022-11-13T21:52:37.885Z,61.96
2022-11-13T21:55:23.681Z,62.10
2022-11-13T21:58:09.163Z,62.13
2022-11-13T22:00:54.525Z,61.95
2022-11-13T22:03:41.176Z,61.70
2022-11-13T22:06:30.225Z,61.34
2022-11-13T22:09:17.435Z,61.95
2022-11-13T22:12:03.150Z,61.29
2022-11-13T22:14:48.801Z,61.16
2022-11-13T22:17:34.208Z,61.68
2022-11-13T22:20:19.802Z,61.46
2022-11-13T22:23:05.965Z,61.25
2022-11-13T22:25:55.766Z,61.72
2022-11-13T22:28:45.188Z,61.71
2022-11-13T22:31:33.043Z,61.72
2022-11-13T22:34:18.489Z,61.24
2022-11-13T22:37:04.253Z,61.32
2022-11-13T22:39:49.744Z,61.04
2022-11-13T22:42:35.355Z,61.39
2022-11-13T22:45:24.483Z,61.11
2022-11-13T22:48:11.466Z,61.62
2022-11-13T22:51:01.841Z,61.08
2022-11-13T22:53:58.207Z,60.65
2022-11-13T22:56:44.423Z,60.98
2022-11-13T22:59:29.896Z,60.73
2022-11-13T23:02:15.501Z,61.08
2022-11-13T23:05:01.316Z,61.51
2022-11-13T23:07:46.993Z,61.16
2022-11-13T23:10:32.544Z,60.86
2022-11-13T23:13:18.108Z,61.67
2022-11-13T23:16:04.002Z,62.32
2022-11-13T23:18:50.347Z,62.65
2022-11-13T23:21:35.972Z,62.05
2022-11-13T23:24:21.413Z,62.61
2022-11-13T23:27:06.985Z,63.22
2022-11-13T23:29:53.906Z,63.07
2022-11-13T23:32:39.557Z,63.26
2022-11-13T23:35:25.373Z,63.05
2022-11-13T23:38:11.249Z,62.92
2022-11-13T23:40:58.358Z,63.63
2022-11-13T23:46:49.566Z,62.68
2022-11-13T23:49:35.271Z,62.75
2022-11-13T23:52:21.066Z,62.36
2022-11-13T23:55:07.104Z,62.96
2022-11-13T23:58:00.185Z,62.85
